Home   Weather   France   Poitiers   Past weeks
Flag for France

Past Weather in Poitiers, Nouvelle-Aquitaine, France — Yesterday and Last 2 Weeks

Currently: 63 °F. Mostly cloudy. (Weather station: Poitiers Airport, France). See more current weather

Past Weather in Poitiers — Graph

°F

Poitiers Temperature Yesterday

Maximum temperature yesterday: 75 °F (at 12:00 am)
Minimum temperature yesterday: 63 °F (at 4:30 am)
Average temperature yesterday: 67 °F

High & Low Weather Summary for the Past Weeks

 TemperatureHumidityPressure
High88 °F (Jun 14, 5:30 pm)100% (Jun 3, 4:00 am)30.33 "Hg (Jun 3, 4:00 am)
Low50 °F (Jun 6, 3:30 am)33% (Jun 15, 6:00 pm)29.74 "Hg (Jun 16, 11:30 pm)
Average69 °F67%30.12 "Hg
* Reported Jun 3 4:00 am — Jun 18 4:30 am, Poitiers. Weather by CustomWeather, © 2021

Note: Actual official high and low records may vary slightly from our data, if they occured in-between our weather recording intervals... More about our weather records

Poitiers Weather History for the Previous 24 Hours

Scroll right to see more
 ConditionsComfort  
Time TempWeatherWind HumidityBarometerVisibility
4:30 am
Fri, Jun 18
63 °FClear.12 mph94%29.80 "Hg10 mi
4:00 am63 °FClear.12 mph94%29.80 "Hg10 mi
3:30 am63 °FClear.9 mph94%29.83 "Hg10 mi
3:00 am64 °FPartly cloudy.9 mph88%29.83 "HgN/A
2:30 am64 °FLight rain. Partly cloudy.8 mph88%29.83 "HgN/A
2:00 am64 °FPassing clouds.7 mph94%29.83 "HgN/A
1:30 am64 °FPassing clouds.7 mph94%29.83 "HgN/A
1:00 am64 °FPassing clouds.8 mph94%29.83 "HgN/A
12:30 am64 °FPassing clouds.9 mph94%29.83 "HgN/A
12:00 am64 °FPassing clouds.7 mph94%29.83 "HgN/A
11:30 pm
Thu, Jun 17
64 °FMostly cloudy.8 mph94%29.83 "HgN/A
11:00 pm64 °FLight rain. Mostly cloudy.7 mph100%29.83 "Hg4 mi
10:30 pm64 °FMostly cloudy.8 mph100%29.83 "HgN/A
10:00 pm64 °FRain. Partly cloudy.9 mph100%29.80 "HgN/A
9:30 pm66 °FSunny.8 mph88%29.80 "Hg10 mi
9:00 pm66 °FLow clouds.8 mph94%29.83 "HgN/A
8:30 pm66 °FMostly cloudy.7 mph94%29.83 "HgN/A
8:00 pm68 °FMore clouds than sun.8 mph94%29.83 "HgN/A
7:30 pm68 °FMostly cloudy.8 mph94%29.83 "HgN/A
7:00 pm68 °FLight rain. Broken clouds.6 mph94%29.83 "HgN/A
6:30 pm68 °FMostly cloudy.6 mph94%29.83 "HgN/A
6:00 pm68 °FLight rain. Broken clouds.1 mph94%29.86 "HgN/A
5:30 pm68 °FLight rain. Broken clouds.2 mph94%29.86 "HgN/A
5:00 pm68 °FLight rain. Broken clouds.2 mph94%29.86 "HgN/A
4:30 pm68 °FRain. Partly sunny.3 mph94%29.89 "Hg5 mi
4:00 pm68 °FRain. Cloudy.7 mph94%29.89 "Hg5 mi
3:30 pm68 °FRain. Mostly cloudy.8 mph94%29.89 "HgN/A
3:00 pm68 °FRain. Broken clouds.7 mph94%29.89 "HgN/A
2:30 pm70 °FRain. Mostly cloudy.7 mph83%29.86 "HgN/A
2:00 pm72 °FBroken clouds.7 mph78%29.86 "HgN/A
1:30 pm72 °FMostly cloudy.7 mph78%29.86 "HgN/A
1:00 pm72 °FMostly cloudy.8 mph78%29.86 "HgN/A
12:30 pm72 °FMostly cloudy.8 mph78%29.86 "HgN/A
12:00 pm72 °FOvercast.9 mph78%29.86 "HgN/A
11:30 am72 °FPartly sunny.10 mph78%29.86 "HgN/A
11:00 am72 °FScattered clouds.13 mph73%29.86 "HgN/A
10:30 am70 °FSunny.12 mph83%29.86 "Hg10 mi
10:00 am70 °FSunny.14 mph78%29.86 "Hg10 mi
9:30 am68 °FSunny.13 mph83%29.86 "Hg10 mi
9:00 am66 °FSunny.13 mph88%29.86 "Hg10 mi
8:30 am66 °FSunny.13 mph88%29.86 "Hg10 mi
8:00 am64 °FSunny.12 mph94%29.86 "Hg10 mi
7:30 am64 °FSunny.12 mph94%29.86 "Hg10 mi
7:00 am63 °FSunny.8 mph100%29.83 "Hg10 mi
6:30 am63 °FSunny.9 mph100%29.83 "Hg10 mi
6:00 am63 °FPassing clouds.9 mph94%29.83 "HgN/A
5:30 am63 °FPassing clouds.5 mph100%29.80 "HgN/A
5:00 am63 °FPassing clouds.7 mph100%29.80 "HgN/A
Weather by CustomWeather, © 2021

See weather overview